sensor_id;sensor_type;location;lat;lon;timestamp;P1;durP1;ratioP1;P2;durP2;ratioP2
15931;SDS011;8065;49.520;11.284;2023-03-01T00:00:05;17.70;;;11.73;;
15931;SDS011;8065;49.520;11.284;2023-03-01T00:02:33;21.03;;;11.93;;
15931;SDS011;8065;49.520;11.284;2023-03-01T00:04:59;20.23;;;12.43;;
15931;SDS011;8065;49.520;11.284;2023-03-01T00:07:25;19.53;;;12.43;;
15931;SDS011;8065;49.520;11.284;2023-03-01T00:09:52;20.57;;;12.47;;
15931;SDS011;8065;49.520;11.284;2023-03-01T00:12:19;23.03;;;13.57;;
15931;SDS011;8065;49.520;11.284;2023-03-01T00:14:45;21.40;;;12.67;;
15931;SDS011;8065;49.520;11.284;2023-03-01T00:17:13;21.50;;;12.67;;
15931;SDS011;8065;49.520;11.284;2023-03-01T00:19:39;17.87;;;11.73;;
15931;SDS011;8065;49.520;11.284;2023-03-01T00:22:06;17.70;;;12.10;;
15931;SDS011;8065;49.520;11.284;2023-03-01T00:24:32;17.53;;;11.43;;
15931;SDS011;8065;49.520;11.284;2023-03-01T00:26:59;17.13;;;12.10;;
15931;SDS011;8065;49.520;11.284;2023-03-01T00:29:25;19.10;;;12.37;;
15931;SDS011;8065;49.520;11.284;2023-03-01T00:31:52;18.87;;;12.43;;
15931;SDS011;8065;49.520;11.284;2023-03-01T00:34:20;20.27;;;12.27;;
15931;SDS011;8065;49.520;11.284;2023-03-01T00:36:46;19.30;;;12.17;;
15931;SDS011;8065;49.520;11.284;2023-03-01T00:39:14;24.03;;;12.67;;
15931;SDS011;8065;49.520;11.284;2023-03-01T00:41:41;21.43;;;12.77;;
15931;SDS011;8065;49.520;11.284;2023-03-01T00:44:08;18.63;;;12.30;;
15931;SDS011;8065;49.520;11.284;2023-03-01T00:46:35;21.20;;;12.53;;
15931;SDS011;8065;49.520;11.284;2023-03-01T00:49:01;20.00;;;11.90;;
15931;SDS011;8065;49.520;11.284;2023-03-01T00:51:31;19.23;;;12.53;;
15931;SDS011;8065;49.520;11.284;2023-03-01T00:53:59;19.53;;;11.83;;
15931;SDS011;8065;49.520;11.284;2023-03-01T00:56:27;20.37;;;12.37;;
15931;SDS011;8065;49.520;11.284;2023-03-01T00:58:54;21.47;;;12.90;;
15931;SDS011;8065;49.520;11.284;2023-03-01T01:01:22;20.40;;;12.83;;
15931;SDS011;8065;49.520;11.284;2023-03-01T01:03:53;19.57;;;13.40;;
15931;SDS011;8065;49.520;11.284;2023-03-01T01:06:21;18.50;;;12.20;;
15931;SDS011;8065;49.520;11.284;2023-03-01T01:08:51;20.63;;;12.80;;
15931;SDS011;8065;49.520;11.284;2023-03-01T01:11:19;21.43;;;12.40;;
15931;SDS011;8065;49.520;11.284;2023-03-01T01:13:46;18.70;;;11.90;;
15931;SDS011;8065;49.520;11.284;2023-03-01T01:16:15;19.77;;;11.90;;
15931;SDS011;8065;49.520;11.284;2023-03-01T01:18:42;19.63;;;12.23;;
15931;SDS011;8065;49.520;11.284;2023-03-01T01:21:10;19.00;;;13.13;;
15931;SDS011;8065;49.520;11.284;2023-03-01T01:23:38;20.30;;;12.17;;
15931;SDS011;8065;49.520;11.284;2023-03-01T01:26:07;19.90;;;12.97;;
15931;SDS011;8065;49.520;11.284;2023-03-01T01:28:35;19.33;;;12.17;;
15931;SDS011;8065;49.520;11.284;2023-03-01T01:31:02;22.93;;;14.30;;
15931;SDS011;8065;49.520;11.284;2023-03-01T01:33:28;23.57;;;13.93;;
15931;SDS011;8065;49.520;11.284;2023-03-01T01:35:55;23.43;;;14.03;;
15931;SDS011;8065;49.520;11.284;2023-03-01T01:38:22;20.73;;;12.70;;
15931;SDS011;8065;49.520;11.284;2023-03-01T01:40:49;21.17;;;13.23;;
15931;SDS011;8065;49.520;11.284;2023-03-01T01:43:19;19.20;;;12.37;;
15931;SDS011;8065;49.520;11.284;2023-03-01T01:45:47;20.67;;;12.37;;
15931;SDS011;8065;49.520;11.284;2023-03-01T01:48:16;19.43;;;12.83;;
15931;SDS011;8065;49.520;11.284;2023-03-01T01:50:45;19.77;;;12.43;;
15931;SDS011;8065;49.520;11.284;2023-03-01T01:53:19;18.70;;;12.67;;
15931;SDS011;8065;49.520;11.284;2023-03-01T01:55:47;17.63;;;11.33;;
15931;SDS011;8065;49.520;11.284;2023-03-01T01:58:19;16.57;;;11.30;;
15931;SDS011;8065;49.520;11.284;2023-03-01T02:00:47;17.70;;;11.83;;
15931;SDS011;8065;49.520;11.284;2023-03-01T02:03:15;18.13;;;12.33;;
15931;SDS011;8065;49.520;11.284;2023-03-01T02:05:46;18.70;;;12.07;;
15931;SDS011;8065;49.520;11.284;2023-03-01T02:08:17;19.63;;;12.37;;
15931;SDS011;8065;49.520;11.284;2023-03-01T02:10:45;18.77;;;12.43;;
15931;SDS011;8065;49.520;11.284;2023-03-01T02:13:13;18.57;;;12.27;;
15931;SDS011;8065;49.520;11.284;2023-03-01T02:15:41;21.93;;;12.63;;
15931;SDS011;8065;49.520;11.284;2023-03-01T02:18:10;17.27;;;11.53;;
15931;SDS011;8065;49.520;11.284;2023-03-01T02:20:42;20.23;;;12.00;;
15931;SDS011;8065;49.520;11.284;2023-03-01T02:23:15;20.63;;;12.70;;
15931;SDS011;8065;49.520;11.284;2023-03-01T02:25:46;22.27;;;12.60;;
15931;SDS011;8065;49.520;11.284;2023-03-01T02:28:22;20.77;;;12.53;;
15931;SDS011;8065;49.520;11.284;2023-03-01T02:30:50;19.33;;;12.37;;
15931;SDS011;8065;49.520;11.284;2023-03-01T02:33:36;19.23;;;12.00;;
15931;SDS011;8065;49.520;11.284;2023-03-01T02:36:06;19.07;;;11.97;;
15931;SDS011;8065;49.520;11.284;2023-03-01T02:38:36;16.90;;;11.70;;
15931;SDS011;8065;49.520;11.284;2023-03-01T02:41:02;19.73;;;12.57;;
15931;SDS011;8065;49.520;11.284;2023-03-01T02:43:33;19.90;;;12.70;;
15931;SDS011;8065;49.520;11.284;2023-03-01T02:46:02;20.03;;;11.90;;
15931;SDS011;8065;49.520;11.284;2023-03-01T02:48:38;18.43;;;12.27;;
15931;SDS011;8065;49.520;11.284;2023-03-01T02:51:07;22.93;;;12.57;;
15931;SDS011;8065;49.520;11.284;2023-03-01T02:53:46;20.97;;;13.50;;
15931;SDS011;8065;49.520;11.284;2023-03-01T02:56:22;20.97;;;12.30;;
15931;SDS011;8065;49.520;11.284;2023-03-01T02:58:50;20.43;;;13.27;;
15931;SDS011;8065;49.520;11.284;2023-03-01T03:01:18;20.37;;;11.97;;
15931;SDS011;8065;49.520;11.284;2023-03-01T03:03:45;24.73;;;14.20;;
15931;SDS011;8065;49.520;11.284;2023-03-01T03:06:12;22.20;;;12.70;;
15931;SDS011;8065;49.520;11.284;2023-03-01T03:08:39;22.17;;;12.57;;
15931;SDS011;8065;49.520;11.284;2023-03-01T03:11:05;20.57;;;12.53;;
15931;SDS011;8065;49.520;11.284;2023-03-01T03:13:32;20.93;;;12.63;;
15931;SDS011;8065;49.520;11.284;2023-03-01T03:16:00;23.00;;;12.90;;
15931;SDS011;8065;49.520;11.284;2023-03-01T03:18:28;20.83;;;13.30;;
15931;SDS011;8065;49.520;11.284;2023-03-01T03:20:55;19.33;;;12.40;;
15931;SDS011;8065;49.520;11.284;2023-03-01T03:23:21;19.63;;;12.47;;
15931;SDS011;8065;49.520;11.284;2023-03-01T03:25:48;20.43;;;12.87;;
15931;SDS011;8065;49.520;11.284;2023-03-01T03:28:15;20.73;;;12.80;;
15931;SDS011;8065;49.520;11.284;2023-03-01T03:30:42;19.27;;;12.53;;
15931;SDS011;8065;49.520;11.284;2023-03-01T03:33:11;22.33;;;12.70;;
15931;SDS011;8065;49.520;11.284;2023-03-01T03:35:39;19.47;;;12.80;;
15931;SDS011;8065;49.520;11.284;2023-03-01T03:38:08;21.07;;;13.23;;
15931;SDS011;8065;49.520;11.284;2023-03-01T03:40:41;21.03;;;12.77;;
15931;SDS011;8065;49.520;11.284;2023-03-01T03:43:10;20.00;;;12.53;;
15931;SDS011;8065;49.520;11.284;2023-03-01T03:45:38;19.77;;;12.57;;
15931;SDS011;8065;49.520;11.284;2023-03-01T03:48:05;22.83;;;13.37;;
15931;SDS011;8065;49.520;11.284;2023-03-01T03:50:34;20.13;;;12.67;;
15931;SDS011;8065;49.520;11.284;2023-03-01T03:53:01;20.10;;;12.80;;
15931;SDS011;8065;49.520;11.284;2023-03-01T03:55:29;21.17;;;12.93;;
15931;SDS011;8065;49.520;11.284;2023-03-01T03:57:56;21.33;;;12.50;;
15931;SDS011;8065;49.520;11.284;2023-03-01T04:00:27;20.73;;;12.00;;
15931;SDS011;8065;49.520;11.284;2023-03-01T04:02:54;19.60;;;12.80;;
15931;SDS011;8065;49.520;11.284;2023-03-01T04:05:21;22.83;;;12.00;;
15931;SDS011;8065;49.520;11.284;2023-03-01T04:07:49;22.50;;;12.83;;
15931;SDS011;8065;49.520;11.284;2023-03-01T04:10:26;20.13;;;12.93;;
15931;SDS011;8065;49.520;11.284;2023-03-01T04:12:53;19.83;;;12.77;;
15931;SDS011;8065;49.520;11.284;2023-03-01T04:15:21;19.40;;;12.97;;
15931;SDS011;8065;49.520;11.284;2023-03-01T04:17:49;21.57;;;13.03;;
15931;SDS011;8065;49.520;11.284;2023-03-01T04:20:18;18.23;;;12.70;;
15931;SDS011;8065;49.520;11.284;2023-03-01T04:22:51;20.70;;;12.57;;
15931;SDS011;8065;49.520;11.284;2023-03-01T04:25:18;17.57;;;11.27;;
15931;SDS011;8065;49.520;11.284;2023-03-01T04:27:45;22.73;;;12.93;;
15931;SDS011;8065;49.520;11.284;2023-03-01T04:30:12;17.20;;;12.00;;
15931;SDS011;8065;49.520;11.284;2023-03-01T04:32:38;22.07;;;12.63;;
15931;SDS011;8065;49.520;11.284;2023-03-01T04:35:05;20.70;;;12.63;;
15931;SDS011;8065;49.520;11.284;2023-03-01T04:37:33;18.93;;;12.20;;
15931;SDS011;8065;49.520;11.284;2023-03-01T04:40:01;19.63;;;12.33;;
15931;SDS011;8065;49.520;11.284;2023-03-01T04:42:37;18.97;;;12.17;;
15931;SDS011;8065;49.520;11.284;2023-03-01T04:45:04;20.03;;;12.97;;
15931;SDS011;8065;49.520;11.284;2023-03-01T04:47:37;20.00;;;12.90;;
15931;SDS011;8065;49.520;11.284;2023-03-01T04:50:05;18.07;;;12.17;;
15931;SDS011;8065;49.520;11.284;2023-03-01T04:52:32;20.80;;;13.60;;
15931;SDS011;8065;49.520;11.284;2023-03-01T04:55:00;20.40;;;12.63;;
15931;SDS011;8065;49.520;11.284;2023-03-01T04:57:27;19.43;;;13.10;;
15931;SDS011;8065;49.520;11.284;2023-03-01T04:59:53;20.93;;;13.53;;
15931;SDS011;8065;49.520;11.284;2023-03-01T05:02:20;21.57;;;13.23;;
15931;SDS011;8065;49.520;11.284;2023-03-01T05:04:46;19.57;;;12.83;;
15931;SDS011;8065;49.520;11.284;2023-03-01T05:07:12;21.50;;;12.70;;
15931;SDS011;8065;49.520;11.284;2023-03-01T05:09:44;23.07;;;14.10;;
15931;SDS011;8065;49.520;11.284;2023-03-01T05:12:12;23.93;;;16.30;;
15931;SDS011;8065;49.520;11.284;2023-03-01T05:14:38;24.47;;;17.27;;
15931;SDS011;8065;49.520;11.284;2023-03-01T05:17:05;20.93;;;14.63;;
15931;SDS011;8065;49.520;11.284;2023-03-01T05:19:32;22.43;;;13.87;;
15931;SDS011;8065;49.520;11.284;2023-03-01T05:21:59;21.57;;;13.53;;
15931;SDS011;8065;49.520;11.284;2023-03-01T05:24:30;20.37;;;13.37;;
15931;SDS011;8065;49.520;11.284;2023-03-01T05:26:58;22.20;;;14.27;;
15931;SDS011;8065;49.520;11.284;2023-03-01T05:29:26;23.00;;;13.63;;
15931;SDS011;8065;49.520;11.284;2023-03-01T05:31:54;20.33;;;12.87;;
15931;SDS011;8065;49.520;11.284;2023-03-01T05:34:23;17.90;;;12.77;;
15931;SDS011;8065;49.520;11.284;2023-03-01T05:36:50;20.97;;;13.57;;
15931;SDS011;8065;49.520;11.284;2023-03-01T05:39:18;20.17;;;14.07;;
15931;SDS011;8065;49.520;11.284;2023-03-01T05:41:46;22.63;;;13.80;;
15931;SDS011;8065;49.520;11.284;2023-03-01T05:44:12;26.43;;;15.10;;
15931;SDS011;8065;49.520;11.284;2023-03-01T05:46:40;18.90;;;13.30;;
15931;SDS011;8065;49.520;11.284;2023-03-01T05:49:06;22.83;;;13.50;;
15931;SDS011;8065;49.520;11.284;2023-03-01T05:51:33;21.20;;;13.03;;
15931;SDS011;8065;49.520;11.284;2023-03-01T05:53:59;20.00;;;12.73;;
15931;SDS011;8065;49.520;11.284;2023-03-01T05:56:26;20.00;;;13.13;;
15931;SDS011;8065;49.520;11.284;2023-03-01T05:58:52;23.17;;;13.63;;
15931;SDS011;8065;49.520;11.284;2023-03-01T06:01:19;19.37;;;13.10;;
15931;SDS011;8065;49.520;11.284;2023-03-01T06:03:47;21.20;;;14.17;;
15931;SDS011;8065;49.520;11.284;2023-03-01T06:06:14;20.87;;;12.67;;
15931;SDS011;8065;49.520;11.284;2023-03-01T06:08:40;19.67;;;12.97;;
15931;SDS011;8065;49.520;11.284;2023-03-01T06:11:06;24.57;;;14.10;;
15931;SDS011;8065;49.520;11.284;2023-03-01T06:13:33;18.90;;;13.13;;
15931;SDS011;8065;49.520;11.284;2023-03-01T06:15:59;24.87;;;13.30;;
15931;SDS011;8065;49.520;11.284;2023-03-01T06:18:26;21.07;;;13.60;;
15931;SDS011;8065;49.520;11.284;2023-03-01T06:20:54;20.67;;;13.10;;
15931;SDS011;8065;49.520;11.284;2023-03-01T06:23:21;21.33;;;13.27;;
15931;SDS011;8065;49.520;11.284;2023-03-01T06:25:48;22.03;;;13.60;;
15931;SDS011;8065;49.520;11.284;2023-03-01T06:28:14;21.10;;;13.97;;
15931;SDS011;8065;49.520;11.284;2023-03-01T06:30:41;21.33;;;13.93;;
15931;SDS011;8065;49.520;11.284;2023-03-01T06:33:07;21.23;;;13.40;;
15931;SDS011;8065;49.520;11.284;2023-03-01T06:35:34;20.57;;;12.90;;
15931;SDS011;8065;49.520;11.284;2023-03-01T06:38:02;23.23;;;13.87;;
15931;SDS011;8065;49.520;11.284;2023-03-01T06:40:30;22.07;;;13.97;;
15931;SDS011;8065;49.520;11.284;2023-03-01T06:42:57;23.77;;;14.07;;
15931;SDS011;8065;49.520;11.284;2023-03-01T06:45:24;22.87;;;14.17;;
15931;SDS011;8065;49.520;11.284;2023-03-01T06:47:50;23.07;;;13.73;;
15931;SDS011;8065;49.520;11.284;2023-03-01T06:50:17;21.77;;;13.33;;
15931;SDS011;8065;49.520;11.284;2023-03-01T06:52:44;23.17;;;14.47;;
15931;SDS011;8065;49.520;11.284;2023-03-01T06:55:12;22.80;;;14.20;;
15931;SDS011;8065;49.520;11.284;2023-03-01T06:57:39;23.77;;;14.10;;
15931;SDS011;8065;49.520;11.284;2023-03-01T07:00:06;26.37;;;15.50;;
15931;SDS011;8065;49.520;11.284;2023-03-01T07:02:34;23.07;;;14.87;;
15931;SDS011;8065;49.520;11.284;2023-03-01T07:05:00;24.50;;;14.57;;
15931;SDS011;8065;49.520;11.284;2023-03-01T07:07:26;22.57;;;14.20;;
15931;SDS011;8065;49.520;11.284;2023-03-01T07:09:53;20.57;;;13.77;;
15931;SDS011;8065;49.520;11.284;2023-03-01T07:12:21;21.40;;;13.83;;
15931;SDS011;8065;49.520;11.284;2023-03-01T07:14:47;22.63;;;14.30;;
15931;SDS011;8065;49.520;11.284;2023-03-01T07:17:14;21.00;;;14.33;;
15931;SDS011;8065;49.520;11.284;2023-03-01T07:19:40;21.97;;;14.10;;
15931;SDS011;8065;49.520;11.284;2023-03-01T07:22:06;20.83;;;13.57;;
15931;SDS011;8065;49.520;11.284;2023-03-01T07:24:34;20.90;;;13.70;;
15931;SDS011;8065;49.520;11.284;2023-03-01T07:27:01;20.37;;;13.63;;
15931;SDS011;8065;49.520;11.284;2023-03-01T07:29:28;22.90;;;14.23;;
15931;SDS011;8065;49.520;11.284;2023-03-01T07:31:55;21.80;;;14.27;;
15931;SDS011;8065;49.520;11.284;2023-03-01T07:34:21;21.23;;;13.60;;
15931;SDS011;8065;49.520;11.284;2023-03-01T07:36:48;19.67;;;13.60;;
15931;SDS011;8065;49.520;11.284;2023-03-01T07:39:14;23.80;;;14.20;;
15931;SDS011;8065;49.520;11.284;2023-03-01T07:41:41;20.43;;;13.50;;
15931;SDS011;8065;49.520;11.284;2023-03-01T07:44:07;23.50;;;14.90;;
15931;SDS011;8065;49.520;11.284;2023-03-01T07:46:35;23.30;;;15.40;;
15931;SDS011;8065;49.520;11.284;2023-03-01T07:49:02;22.83;;;14.00;;
15931;SDS011;8065;49.520;11.284;2023-03-01T07:51:29;22.17;;;14.13;;
15931;SDS011;8065;49.520;11.284;2023-03-01T07:53:56;22.17;;;13.50;;
15931;SDS011;8065;49.520;11.284;2023-03-01T07:56:22;21.97;;;14.03;;
15931;SDS011;8065;49.520;11.284;2023-03-01T07:58:48;21.70;;;14.53;;
15931;SDS011;8065;49.520;11.284;2023-03-01T08:01:16;20.90;;;13.67;;
15931;SDS011;8065;49.520;11.284;2023-03-01T08:03:45;20.53;;;13.83;;
15931;SDS011;8065;49.520;11.284;2023-03-01T08:06:13;22.17;;;14.37;;
15931;SDS011;8065;49.520;11.284;2023-03-01T08:08:41;22.87;;;14.53;;
15931;SDS011;8065;49.520;11.284;2023-03-01T08:11:08;22.67;;;14.40;;
15931;SDS011;8065;49.520;11.284;2023-03-01T08:13:36;23.40;;;14.80;;
15931;SDS011;8065;49.520;11.284;2023-03-01T08:16:03;22.80;;;14.47;;
15931;SDS011;8065;49.520;11.284;2023-03-01T08:18:31;23.03;;;14.37;;
15931;SDS011;8065;49.520;11.284;2023-03-01T08:21:02;22.53;;;14.97;;
15931;SDS011;8065;49.520;11.284;2023-03-01T08:23:29;20.20;;;14.43;;
15931;SDS011;8065;49.520;11.284;2023-03-01T08:26:02;21.50;;;14.87;;
15931;SDS011;8065;49.520;11.284;2023-03-01T08:28:30;20.17;;;14.20;;
15931;SDS011;8065;49.520;11.284;2023-03-01T08:30:57;22.50;;;13.97;;
15931;SDS011;8065;49.520;11.284;2023-03-01T08:33:23;21.13;;;13.83;;
15931;SDS011;8065;49.520;11.284;2023-03-01T08:35:50;22.47;;;14.20;;
15931;SDS011;8065;49.520;11.284;2023-03-01T08:38:18;22.73;;;14.13;;
15931;SDS011;8065;49.520;11.284;2023-03-01T08:40:44;24.43;;;16.40;;
15931;SDS011;8065;49.520;11.284;2023-03-01T08:43:10;23.13;;;15.50;;
15931;SDS011;8065;49.520;11.284;2023-03-01T08:45:37;20.27;;;14.37;;
15931;SDS011;8065;49.520;11.284;2023-03-01T08:48:03;22.33;;;15.23;;
15931;SDS011;8065;49.520;11.284;2023-03-01T08:50:30;20.97;;;14.50;;
15931;SDS011;8065;49.520;11.284;2023-03-01T08:52:56;23.93;;;15.63;;
15931;SDS011;8065;49.520;11.284;2023-03-01T08:55:24;22.87;;;15.20;;
15931;SDS011;8065;49.520;11.284;2023-03-01T08:57:50;22.03;;;14.80;;
15931;SDS011;8065;49.520;11.284;2023-03-01T09:00:17;21.77;;;14.97;;
15931;SDS011;8065;49.520;11.284;2023-03-01T09:02:44;22.40;;;14.97;;
15931;SDS011;8065;49.520;11.284;2023-03-01T09:05:11;21.37;;;14.87;;
15931;SDS011;8065;49.520;11.284;2023-03-01T09:07:37;20.90;;;15.27;;
15931;SDS011;8065;49.520;11.284;2023-03-01T09:10:04;23.23;;;15.27;;
15931;SDS011;8065;49.520;11.284;2023-03-01T09:12:32;19.93;;;14.43;;
15931;SDS011;8065;49.520;11.284;2023-03-01T09:14:59;21.27;;;15.13;;
15931;SDS011;8065;49.520;11.284;2023-03-01T09:17:25;21.80;;;15.40;;
15931;SDS011;8065;49.520;11.284;2023-03-01T09:19:52;22.63;;;15.33;;
15931;SDS011;8065;49.520;11.284;2023-03-01T09:22:18;21.17;;;14.47;;
15931;SDS011;8065;49.520;11.284;2023-03-01T09:24:45;22.93;;;15.20;;
15931;SDS011;8065;49.520;11.284;2023-03-01T09:27:11;21.37;;;14.90;;
15931;SDS011;8065;49.520;11.284;2023-03-01T09:29:40;20.37;;;14.97;;
15931;SDS011;8065;49.520;11.284;2023-03-01T09:32:07;22.83;;;15.17;;
15931;SDS011;8065;49.520;11.284;2023-03-01T09:34:34;22.03;;;14.93;;
15931;SDS011;8065;49.520;11.284;2023-03-01T09:37:21;23.97;;;15.63;;
15931;SDS011;8065;49.520;11.284;2023-03-01T09:39:48;23.23;;;15.93;;
15931;SDS011;8065;49.520;11.284;2023-03-01T09:42:15;21.97;;;15.27;;
15931;SDS011;8065;49.520;11.284;2023-03-01T09:44:45;22.33;;;15.80;;
15931;SDS011;8065;49.520;11.284;2023-03-01T09:47:17;20.17;;;14.50;;
15931;SDS011;8065;49.520;11.284;2023-03-01T09:49:45;19.40;;;14.07;;
15931;SDS011;8065;49.520;11.284;2023-03-01T09:52:21;19.83;;;13.97;;
15931;SDS011;8065;49.520;11.284;2023-03-01T09:54:54;19.20;;;14.40;;
15931;SDS011;8065;49.520;11.284;2023-03-01T09:57:24;22.03;;;15.20;;
15931;SDS011;8065;49.520;11.284;2023-03-01T10:00:05;19.93;;;15.10;;
15931;SDS011;8065;49.520;11.284;2023-03-01T10:02:42;21.27;;;15.07;;
15931;SDS011;8065;49.520;11.284;2023-03-01T10:05:17;21.93;;;15.37;;
15931;SDS011;8065;49.520;11.284;2023-03-01T10:08:00;23.27;;;15.47;;
15931;SDS011;8065;49.520;11.284;2023-03-01T10:10:39;21.13;;;14.73;;
15931;SDS011;8065;49.520;11.284;2023-03-01T10:13:10;20.37;;;14.73;;
15931;SDS011;8065;49.520;11.284;2023-03-01T10:15:50;19.07;;;14.70;;
15931;SDS011;8065;49.520;11.284;2023-03-01T10:18:20;20.07;;;14.40;;
15931;SDS011;8065;49.520;11.284;2023-03-01T10:20:51;21.20;;;14.77;;
15931;SDS011;8065;49.520;11.284;2023-03-01T10:23:19;20.23;;;14.13;;
15931;SDS011;8065;49.520;11.284;2023-03-01T10:25:52;19.73;;;14.37;;
15931;SDS011;8065;49.520;11.284;2023-03-01T10:28:31;20.20;;;14.23;;
15931;SDS011;8065;49.520;11.284;2023-03-01T10:31:09;17.53;;;13.63;;
15931;SDS011;8065;49.520;11.284;2023-03-01T10:33:39;20.40;;;13.93;;
15931;SDS011;8065;49.520;11.284;2023-03-01T10:36:07;16.87;;;13.23;;
15931;SDS011;8065;49.520;11.284;2023-03-01T10:38:46;17.60;;;13.50;;
15931;SDS011;8065;49.520;11.284;2023-03-01T10:41:14;21.33;;;14.43;;
15931;SDS011;8065;49.520;11.284;2023-03-01T10:43:43;22.90;;;15.03;;
15931;SDS011;8065;49.520;11.284;2023-03-01T10:46:23;20.80;;;14.17;;
15931;SDS011;8065;49.520;11.284;2023-03-01T10:49:05;19.27;;;13.97;;
15931;SDS011;8065;49.520;11.284;2023-03-01T10:51:33;20.00;;;14.90;;
15931;SDS011;8065;49.520;11.284;2023-03-01T10:54:09;21.60;;;14.00;;
15931;SDS011;8065;49.520;11.284;2023-03-01T10:56:46;20.10;;;14.10;;
15931;SDS011;8065;49.520;11.284;2023-03-01T10:59:20;18.83;;;13.53;;
15931;SDS011;8065;49.520;11.284;2023-03-01T11:02:02;19.53;;;13.53;;
15931;SDS011;8065;49.520;11.284;2023-03-01T11:04:44;19.83;;;13.33;;
15931;SDS011;8065;49.520;11.284;2023-03-01T11:07:22;17.63;;;13.37;;
15931;SDS011;8065;49.520;11.284;2023-03-01T11:09:49;18.73;;;13.77;;
15931;SDS011;8065;49.520;11.284;2023-03-01T11:12:16;17.80;;;13.63;;
15931;SDS011;8065;49.520;11.284;2023-03-01T11:14:46;21.00;;;14.17;;
15931;SDS011;8065;49.520;11.284;2023-03-01T11:17:15;17.37;;;13.27;;
15931;SDS011;8065;49.520;11.284;2023-03-01T11:19:50;20.73;;;14.60;;
15931;SDS011;8065;49.520;11.284;2023-03-01T11:22:26;17.00;;;13.23;;
15931;SDS011;8065;49.520;11.284;2023-03-01T11:24:54;15.03;;;12.53;;
15931;SDS011;8065;49.520;11.284;2023-03-01T11:27:26;16.63;;;12.83;;
15931;SDS011;8065;49.520;11.284;2023-03-01T11:29:55;14.00;;;11.67;;
15931;SDS011;8065;49.520;11.284;2023-03-01T11:32:28;15.90;;;12.57;;
15931;SDS011;8065;49.520;11.284;2023-03-01T11:34:59;16.40;;;12.67;;
15931;SDS011;8065;49.520;11.284;2023-03-01T11:37:32;17.93;;;12.73;;
15931;SDS011;8065;49.520;11.284;2023-03-01T11:40:04;16.97;;;12.83;;
15931;SDS011;8065;49.520;11.284;2023-03-01T11:42:42;19.17;;;13.43;;
15931;SDS011;8065;49.520;11.284;2023-03-01T11:45:14;17.23;;;13.00;;
15931;SDS011;8065;49.520;11.284;2023-03-01T11:47:52;17.97;;;12.70;;
15931;SDS011;8065;49.520;11.284;2023-03-01T11:50:26;16.43;;;12.50;;
15931;SDS011;8065;49.520;11.284;2023-03-01T11:53:01;17.00;;;12.53;;
15931;SDS011;8065;49.520;11.284;2023-03-01T11:55:46;17.10;;;13.13;;
15931;SDS011;8065;49.520;11.284;2023-03-01T11:58:27;17.47;;;13.67;;
15931;SDS011;8065;49.520;11.284;2023-03-01T12:01:16;17.67;;;12.53;;
15931;SDS011;8065;49.520;11.284;2023-03-01T12:07:00;15.60;;;12.10;;
15931;SDS011;8065;49.520;11.284;2023-03-01T12:09:38;15.27;;;11.90;;
15931;SDS011;8065;49.520;11.284;2023-03-01T12:12:24;16.07;;;12.10;;
15931;SDS011;8065;49.520;11.284;2023-03-01T12:15:02;16.17;;;11.97;;
15931;SDS011;8065;49.520;11.284;2023-03-01T12:20:57;16.07;;;11.90;;
15931;SDS011;8065;49.520;11.284;2023-03-01T12:23:38;17.17;;;12.93;;
15931;SDS011;8065;49.520;11.284;2023-03-01T12:26:20;14.93;;;11.60;;
15931;SDS011;8065;49.520;11.284;2023-03-01T12:29:02;17.10;;;12.07;;
15931;SDS011;8065;49.520;11.284;2023-03-01T12:34:54;14.13;;;11.13;;
15931;SDS011;8065;49.520;11.284;2023-03-01T12:37:32;15.83;;;11.53;;
15931;SDS011;8065;49.520;11.284;2023-03-01T12:40:21;16.33;;;11.30;;
15931;SDS011;8065;49.520;11.284;2023-03-01T12:42:58;12.53;;;10.17;;
15931;SDS011;8065;49.520;11.284;2023-03-01T12:45:44;16.30;;;11.43;;
15931;SDS011;8065;49.520;11.284;2023-03-01T12:48:24;15.43;;;10.83;;
15931;SDS011;8065;49.520;11.284;2023-03-01T12:50:57;15.90;;;11.83;;
15931;SDS011;8065;49.520;11.284;2023-03-01T12:53:28;16.83;;;12.43;;
15931;SDS011;8065;49.520;11.284;2023-03-01T12:56:00;15.63;;;11.80;;
15931;SDS011;8065;49.520;11.284;2023-03-01T12:58:29;16.57;;;10.37;;
15931;SDS011;8065;49.520;11.284;2023-03-01T13:01:04;14.33;;;10.77;;
15931;SDS011;8065;49.520;11.284;2023-03-01T13:03:45;15.57;;;11.10;;
15931;SDS011;8065;49.520;11.284;2023-03-01T13:06:25;14.03;;;10.53;;
15931;SDS011;8065;49.520;11.284;2023-03-01T13:09:04;13.83;;;9.57;;
15931;SDS011;8065;49.520;11.284;2023-03-01T13:11:40;14.03;;;10.27;;
15931;SDS011;8065;49.520;11.284;2023-03-01T13:17:03;14.90;;;10.93;;
15931;SDS011;8065;49.520;11.284;2023-03-01T13:19:30;13.23;;;10.80;;
15931;SDS011;8065;49.520;11.284;2023-03-01T13:21:57;14.77;;;10.83;;
15931;SDS011;8065;49.520;11.284;2023-03-01T13:24:25;15.10;;;11.47;;
15931;SDS011;8065;49.520;11.284;2023-03-01T13:27:11;16.33;;;11.03;;
15931;SDS011;8065;49.520;11.284;2023-03-01T13:29:55;15.40;;;11.90;;
15931;SDS011;8065;49.520;11.284;2023-03-01T13:32:25;16.53;;;11.87;;
15931;SDS011;8065;49.520;11.284;2023-03-01T13:35:02;16.17;;;12.77;;
15931;SDS011;8065;49.520;11.284;2023-03-01T13:37:49;14.53;;;12.07;;
15931;SDS011;8065;49.520;11.284;2023-03-01T13:43:28;15.70;;;11.87;;
15931;SDS011;8065;49.520;11.284;2023-03-01T13:45:56;14.40;;;11.87;;
15931;SDS011;8065;49.520;11.284;2023-03-01T13:48:25;16.43;;;11.77;;
15931;SDS011;8065;49.520;11.284;2023-03-01T13:50:54;15.97;;;12.00;;
15931;SDS011;8065;49.520;11.284;2023-03-01T13:53:26;14.67;;;12.13;;
15931;SDS011;8065;49.520;11.284;2023-03-01T13:55:57;17.87;;;12.20;;
15931;SDS011;8065;49.520;11.284;2023-03-01T13:58:29;15.43;;;11.53;;
15931;SDS011;8065;49.520;11.284;2023-03-01T14:00:57;17.57;;;12.63;;
15931;SDS011;8065;49.520;11.284;2023-03-01T14:03:26;20.80;;;12.73;;
15931;SDS011;8065;49.520;11.284;2023-03-01T14:06:03;17.80;;;13.03;;
15931;SDS011;8065;49.520;11.284;2023-03-01T14:08:34;17.50;;;11.90;;
15931;SDS011;8065;49.520;11.284;2023-03-01T14:11:08;15.23;;;11.83;;
15931;SDS011;8065;49.520;11.284;2023-03-01T14:13:54;15.17;;;11.83;;
15931;SDS011;8065;49.520;11.284;2023-03-01T14:16:35;14.67;;;11.77;;
15931;SDS011;8065;49.520;11.284;2023-03-01T14:19:14;17.30;;;12.20;;
15931;SDS011;8065;49.520;11.284;2023-03-01T14:21:45;18.10;;;12.37;;
15931;SDS011;8065;49.520;11.284;2023-03-01T14:24:16;16.50;;;11.73;;
15931;SDS011;8065;49.520;11.284;2023-03-01T14:26:45;16.80;;;11.77;;
15931;SDS011;8065;49.520;11.284;2023-03-01T14:29:27;13.87;;;10.87;;
15931;SDS011;8065;49.520;11.284;2023-03-01T14:32:08;13.30;;;10.43;;
15931;SDS011;8065;49.520;11.284;2023-03-01T14:34:35;14.17;;;11.03;;
15931;SDS011;8065;49.520;11.284;2023-03-01T14:37:09;13.17;;;10.60;;
15931;SDS011;8065;49.520;11.284;2023-03-01T14:39:36;12.50;;;10.47;;
15931;SDS011;8065;49.520;11.284;2023-03-01T14:42:03;12.90;;;10.73;;
15931;SDS011;8065;49.520;11.284;2023-03-01T14:44:32;12.67;;;9.57;;
15931;SDS011;8065;49.520;11.284;2023-03-01T14:47:02;13.80;;;10.17;;
15931;SDS011;8065;49.520;11.284;2023-03-01T14:49:30;15.23;;;10.63;;
15931;SDS011;8065;49.520;11.284;2023-03-01T14:51:58;16.43;;;10.17;;